DAON

Zenata – Messali El Hadj Airport

Tlemcen, Algeria
METAR DAON 201630Z 34004KT 6000 NSC 25/18 Q1012
Observed Flight Rules
Oct-20 @ 16:30 UTC (42 minutes ago) Marginal Visual Flight Rules
Wind Visibility Clouds
340° at 4 knots 6,003 meters
  • Clear skies
Temperatures Readings
Current 25°C / 77°F
Dewpoint 18°C / 64°F
Humidity 65%
Altimeter 29.88" Hg
Pressure 1012 hPa
Elevation 247
METAR DAON 201630Z 34004KT 6000 NSC 25/18 Q1012
Observed Flight Rules
Oct-20 @ 16:30 UTC
(42 minutes ago)
MVFR
Wind Visibility
340° at 4 knots 6,003 meters
Clouds
  • Clear skies
Temperature Dewpoint
25°C / 77°F 18°C / 64°F
Humidity Altimeter Pressure
65% 29.88" Hg 1012 hPa